Tehama, CA (96090)

11:02 AM PDT on September 17, 2014 (GMT -0700)
Red Bluff Municipal | Change Station
CLOSE
Current Station
Airport
Location: Red Bluff,
Elevation: 351 ft
Nearby Weather Stations

Elev 351 ft 40.15 °N, 122.25 °W | Updated 1 hour ago

Clear
Clear
75 °F
Feels Like 75 °F
N
10
Wind Variable Wind from SE

Today
High -- | Low -- °F
--% Chance of Precip.
Yesterday
High -- | Low -- °F
Precip. -- in
6:51 AM 7:13 PM
Waning Crescent, 34% visible
Pressure 29.79 in
Visibility 10.0 miles
Clouds Clear
Dew Point 45 °F
Humidity 34%
Rainfall 0.00 in
Snow Depth 0 in , 0 in , 1 in
UV 3 out of 12
Pollen 6.60 out of 12
Air Quality Not available.
Flu Activity Not available.
METAR KRBL 171654Z AUTO 13009KT 10SM CLR 24/07 A2979

More Conditions Fewer Conditions

Pressure 29.79 in
Visibility 10.0 miles
Clouds Clear
Dew Point 45 °F
Humidity 34%
Rainfall 0.00 in
Snow Depth 0 in , 0 in , 1 in
UV 3 out of 12
Pollen 6.60 out of 12
Air Quality Not available.
Flu Activity Not available.
METAR KRBL 171654Z AUTO 13009KT 10SM CLR 24/07 A2979

More Conditions Fewer Conditions

10-Day Weather Forecast

Almanac

Astronomy

Sep. 17, 2014 Rise Set
Actual Time 6:51 AM PDT 7:13 PM PDT
Civil Twilight 6:24 AM PDT 7:40 PM PDT
Nautical Twilight 5:52 AM PDT 8:12 PM PDT
Astronomical Twilight 5:19 AM PDT 8:45 PM PDT
Moon 12:56 AM PDT 3:27 PM PDT
Length of Visible Light 13h 16m
Length of Day
12h 22m
Tomorrow will be 2m 35s shorter.
Waning Crescent, 34% of the Moon is Illuminated
Today
Waning Crescent
Sep 24
New
Oct 1
First Quarter
Oct 8
Full
Oct 15
Last Quarter

Today's Extremes

State Highs State Lows

Community

WunderPhotos

Upload Photos

1,754,112 photos uploaded!

WunderBlogs® & News

Nearby

Snow Depth

Station Depth Elevation
Leavitt Lake 0 in 9400 ft
Tahoe City Cross 0 in 6750 ft
Summit Meadow 1 in 9122 ft
Spratt Creek 0 in 6200 ft
Forestdale Creek 0 in 8029 ft

Earthquake Activity

City Distance Mag. Time & Date
Cobb, California 91 miles 2.7 1:23 PM PDT
2014-09-16
Minimum magnitude displayed is 2.5.

Coastal Water Temperatures

Place Temperature
No Stations Reporting

Nearby Weather Stations